Latest Weather Observations for Bathurst Airport

IDN60801

Issued at 1:05 pm EDT Thursday 23 October 2014 (issued every 30 minutes, with the page automatically refreshed every 10 minutes)

About weather observations | Map of weather stations | Latest weather observations for NSW | Other Formats
Station Details ID: 063291 Name: BATHURST AIRPORT AWS Lat: -33.41 Lon: 149.65 Height: 744.5 m
Data from the previous 72 hours. | See also: Recent months for locations in New South Wales
Date/Time
EDT
Temp
°C
App
Temp
°C
Dew
Point
Rel
Hum
%
Delta-T
°C
Wind Press
QNH
hPa
Press
MSL
hPa
Rain
since 9 am
mm
Dir
 
Spd
km/h
Gust
km/h
Spd
kts
Gust
kts
23/01:00pm 25.7 22.1 8.2 33 9.7 S 17 26 9 14 1020.7 1019.4 0.0
23/12:30pm 24.4 24.1 11.4 44 7.6 WNW 4 11 2 6 1021.0 1019.7 0.0
23/12:00pm 23.2 22.8 12.5 51 6.3 W 6 11 3 6 1021.4 1020.2 0.0
23/11:30am 22.8 22.7 13.3 55 5.7 SW 6 11 3 6 1021.8 1020.5 0.0
23/11:00am 21.9 22.2 13.3 58 5.1 WNW 4 7 2 4 1022.1 1020.8 0.0
23/10:30am 20.0 19.1 12.5 62 4.4 W 9 13 5 7 1022.5 1021.3 0.0
23/10:00am 19.5 20.6 13.4 68 3.6 CALM 0 0 0 0 1022.4 1021.2 0.0
23/09:30am 16.5 17.1 13.0 80 2.0 SW 2 6 1 3 1022.2 1020.9 0.0
23/09:00am 15.8 15.2 12.4 80 1.9 WSW 7 9 4 5 1022.2 1020.9 0.0
23/08:30am 14.8 14.3 12.1 84 1.5 WSW 6 7 3 4 1022.0 1020.7 0.0
23/08:00am 13.5 14.2 12.1 91 0.8 CALM 0 7 0 4 1021.9 1020.6 0.0
23/07:30am 12.2 11.6 11.7 97 0.3 E 6 7 3 4 1022.0 1020.7 0.0
23/07:00am 10.1 9.0 10.1 100 0.0 W 6 7 3 4 1021.8 1020.5 0.0
23/06:30am 8.9 8.7 8.9 100 0.0 CALM 0 0 0 0 1021.4 1020.2 0.0
23/06:03am 9.3 8.0 9.3 100 0.0 W 6 7 3 4 1021.0 1019.7 0.0
23/06:00am 9.1 7.8 9.1 100 0.0 W 6 7 3 4 1021.0 1019.7 0.0
23/05:50am 8.2 7.4 8.1 99 0.0 SSW 2 9 1 5 1021.2 1020.0 0.0
23/05:30am 8.8 7.8 8.7 99 0.1 S 4 6 2 3 1020.7 1019.4 0.0
23/05:00am 9.3 7.8 9.2 99 0.1 E 7 9 4 5 1020.5 1019.2 0.0
23/04:30am 10.5 9.3 10.3 99 0.1 SSE 7 7 4 4 1020.6 1019.3 0.0
23/04:00am 10.3 10.4 10.0 98 0.2 CALM 0 0 0 0 1020.7 1019.4 0.0
23/03:30am 11.0 9.9 10.8 99 0.1 SSE 7 9 4 5 1020.7 1019.4 0.0
23/03:00am 10.8 11.1 10.8 100 0.0 CALM 0 0 0 0 1020.9 1019.6 0.0
23/02:30am 10.2 9.9 10.0 99 0.1 S 2 7 1 4 1021.1 1019.9 0.0
23/02:00am 10.5 10.6 10.0 97 0.3 CALM 0 0 0 0 1021.2 1020.0 0.0
23/01:30am 10.7 9.6 9.8 94 0.5 SE 6 7 3 4 1021.4 1020.2 0.0
23/01:00am 12.1 12.3 10.5 90 0.9 CALM 0 0 0 0 1021.5 1020.3 0.0
23/12:30am 13.0 11.4 11.7 92 0.7 SE 11 11 6 6 1021.8 1020.5 0.0
23/12:00am 12.7 12.2 10.6 87 1.1 SSE 4 9 2 5 1022.0 1020.7 0.0
 
Date/Time
EDT
Temp
°C
App
Temp
°C
Dew
Point
Rel
Hum
%
Delta-T
°C
Wind Press
QNH
hPa
Press
MSL
hPa
Rain
since 9 am
mm
Dir
 
Spd
km/h
Gust
km/h
Spd
kts
Gust
kts
22/11:30pm 13.2 13.4 10.7 85 1.4 CALM 0 0 0 0 1022.0 1020.7 0.0
22/11:00pm 14.2 14.1 10.8 80 1.9 ESE 2 9 1 5 1022.0 1020.7 0.0
22/10:30pm 14.3 13.4 11.3 82 1.7 ENE 7 9 4 5 1022.1 1020.8 0.0
22/10:00pm 14.8 13.4 11.0 78 2.1 ENE 9 11 5 6 1022.2 1020.9 0.0
22/09:30pm 15.6 14.3 11.4 76 2.3 ENE 9 11 5 6 1022.1 1020.8 0.0
22/09:00pm 16.9 16.0 11.2 69 3.2 NE 7 9 4 5 1022.0 1020.7 0.0
22/08:30pm 17.8 16.8 10.9 64 3.9 NE 7 11 4 6 1021.5 1020.3 0.0
22/08:00pm 18.6 17.2 10.9 61 4.3 E 9 9 5 5 1021.3 1020.1 0.0
22/07:30pm 20.2 18.8 10.9 55 5.3 SE 9 9 5 5 1021.2 1020.0 0.0
22/07:00pm 21.5 20.3 11.5 53 5.7 SE 9 11 5 6 1021.2 1020.0 0.0
22/06:30pm 23.1 22.6 12.7 52 6.2 WNW 7 11 4 6 1021.2 1020.0 0.0
22/06:00pm 23.4 22.5 11.5 47 6.9 W 7 15 4 8 1021.2 1020.0 0.0
22/05:30pm 24.2 23.9 12.8 49 6.8 SW 6 11 3 6 1021.3 1020.1 0.0
22/05:00pm 23.9 23.3 11.6 46 7.2 SW 6 9 3 5 1021.5 1020.3 0.0
22/04:30pm 23.7 22.8 11.4 46 7.1 W 7 15 4 8 1021.8 1020.5 0.0
22/04:00pm 23.5 22.4 11.9 48 6.8 WNW 9 13 5 7 1022.0 1020.7 0.0
22/03:30pm 23.2 21.6 10.3 44 7.3 WNW 9 15 5 8 1022.3 1021.1 0.0
22/03:00pm 22.3 19.8 9.8 45 7.0 W 13 20 7 11 1022.8 1021.6 0.0
22/02:30pm 22.0 20.3 9.9 46 6.8 WSW 9 17 5 9 1023.3 1022.0 0.0
22/02:00pm 21.3 20.1 9.5 47 6.5 NNW 6 13 3 7 1023.7 1022.5 0.0
22/01:30pm 20.9 19.4 10.4 51 5.9 NW 9 19 5 10 1024.1 1022.9 0.0
22/01:00pm 20.0 18.3 9.9 52 5.6 NNW 9 17 5 9 1024.8 1023.6 0.0
22/12:30pm 19.3 17.4 9.2 52 5.5 N 9 17 5 9 1025.3 1024.1 0.0
22/12:00pm 18.1 15.9 7.8 51 5.4 NNW 9 15 5 8 1025.8 1024.7 0.0
22/11:30am 17.3 15.2 8.4 56 4.7 WNW 9 22 5 12 1026.4 1025.2 0.0
22/11:00am 16.4 14.5 9.1 62 3.9 N 9 17 5 9 1026.7 1025.5 0.0
22/10:30am 15.1 13.0 8.3 64 3.6 NNW 9 13 5 7 1027.1 1026.0 0.0
22/10:00am 14.1 12.6 8.3 68 3.0 N 6 13 3 7 1027.1 1026.0 0.0
22/09:30am 13.2 11.5 10.0 81 1.7 NW 9 13 5 7 1027.3 1026.2 0.0
22/09:00am 11.2 9.4 7.9 80 1.7 W 7 11 4 6 1027.0 1025.9 0.0
22/08:30am 10.2 8.4 8.1 87 1.1 SW 7 9 4 5 1027.0 1025.9 0.0
22/08:00am 9.7 8.3 7.3 85 1.2 NNE 4 9 2 5 1027.0 1025.9 0.0
22/07:30am 9.0 7.2 8.1 94 0.5 ESE 7 11 4 6 1027.0 1025.9 0.0
22/07:00am 7.0 4.6 6.9 99 0.0 E 9 11 5 6 1027.0 1025.9 0.0
22/06:36am 5.8 4.4 5.7 99 0.0 W 2 7 1 4 1026.9 1025.8 0.0
22/06:30am 5.4 4.3 5.3 99 0.0 CALM 0 6 0 3 1027.0 1025.9 0.0
22/06:18am 4.9 2.6 4.8 99 0.0 WSW 6 7 3 4 1026.9 1025.8 0.0
22/06:00am 5.1 2.6 3.8 91 0.6 NE 6 7 3 4 1026.7 1025.5 0.0
22/05:30am 6.7 4.5 6.4 98 0.1 E 7 11 4 6 1026.5 1025.3 0.0
22/05:00am 7.1 4.9 6.2 94 0.4 E 7 11 4 6 1026.4 1025.2 0.0
22/04:30am 7.5 5.1 7.1 97 0.2 ESE 9 13 5 7 1026.4 1025.2 0.0
22/04:00am 6.9 4.0 6.6 98 0.1 E 11 15 6 8 1026.7 1025.5 0.0
22/03:30am 7.4 4.9 6.7 95 0.3 ENE 9 13 5 7 1027.0 1025.9 0.0
22/03:00am 8.1 5.6 6.7 91 0.7 E 9 13 5 7 1027.6 1026.4 0.0
22/02:30am 7.9 4.7 7.0 94 0.4 E 13 19 7 10 1027.8 1026.6 0.0
22/02:00am 8.0 4.8 6.9 93 0.5 ENE 13 17 7 9 1028.1 1027.0 0.0
22/01:30am 8.4 5.3 7.3 93 0.5 E 13 19 7 10 1028.4 1027.3 0.0
22/01:00am 8.6 6.2 7.1 90 0.7 E 9 13 5 7 1028.8 1027.7 0.0
22/12:30am 9.1 5.6 7.4 89 0.8 E 15 20 8 11 1029.4 1028.3 0.0
22/12:00am 9.0 5.5 7.3 89 0.8 ENE 15 20 8 11 1029.7 1028.6 0.0
 
Date/Time
EDT
Temp
°C
App
Temp
°C
Dew
Point
Rel
Hum
%
Delta-T
°C
Wind Press
QNH
hPa
Press
MSL
hPa
Rain
since 9 am
mm
Dir
 
Spd
km/h
Gust
km/h
Spd
kts
Gust
kts
21/11:30pm 9.6 5.8 7.7 88 0.9 ENE 17 26 9 14 1029.8 1028.7 0.0
21/11:00pm 8.8 6.2 7.7 93 0.5 ENE 11 13 6 7 1030.0 1028.9 0.0
21/10:30pm 9.4 6.8 7.7 89 0.8 E 11 17 6 9 1030.1 1029.0 0.0
21/10:00pm 9.8 6.8 7.7 87 1.0 E 13 17 7 9 1030.1 1029.0 0.0
21/09:30pm 9.9 6.9 7.8 87 1.1 E 13 17 7 9 1029.9 1028.8 0.0
21/09:00pm 10.2 7.2 7.8 85 1.2 E 13 20 7 11 1029.8 1028.7 0.0
21/08:30pm 10.2 8.1 8.1 87 1.1 ENE 9 13 5 7 1029.6 1028.5 0.0
21/08:00pm 10.6 8.4 8.0 84 1.3 E 9 17 5 9 1029.4 1028.3 0.0
21/07:30pm 11.0 8.1 8.0 82 1.5 ENE 13 20 7 11 1028.8 1027.7 0.0
21/07:00pm 12.2 8.2 8.3 77 2.0 ENE 19 24 10 13 1028.4 1027.3 0.0
21/06:30pm 13.9 9.9 8.3 69 2.9 ENE 19 28 10 15 1028.1 1027.0 0.0
21/06:00pm 15.9 12.2 9.3 65 3.5 ENE 19 24 10 13 1027.9 1026.7 0.0
21/05:30pm 15.9 12.1 9.1 64 3.6 ENE 19 24 10 13 1028.1 1027.0 0.0
21/05:00pm 16.3 12.8 8.8 61 4.0 ENE 17 22 9 12 1028.1 1027.0 0.0
21/04:30pm 16.9 13.2 9.3 61 4.1 ENE 19 24 10 13 1027.9 1026.7 0.0
21/04:00pm 18.1 15.4 10.2 60 4.3 N 15 20 8 11 1027.7 1026.5 0.0
21/03:30pm 18.6 16.4 10.7 60 4.4 N 13 24 7 13 1027.8 1026.6 0.0
21/03:00pm 18.0 16.5 8.6 54 5.0 N 6 13 3 7 1028.2 1027.1 0.0
21/02:30pm 19.4 18.7 10.1 55 5.2 SSW 4 9 2 5 1028.4 1027.3 0.0
21/02:00pm 18.5 17.0 9.3 55 5.0 SSE 7 13 4 7 1029.0 1027.8 0.0
21/01:30pm 17.8 16.3 9.2 57 4.7 NE 7 13 4 7 1029.4 1028.3 0.0
21/01:00pm 17.5 16.8 9.9 61 4.1 SW 4 11 2 6 1030.0 1028.9 0.0
21/12:30pm 16.8 14.4 8.8 59 4.3 E 11 20 6 11 1030.3 1029.2 0.0
21/12:00pm 16.1 14.0 8.1 59 4.2 ENE 9 20 5 11 1030.8 1029.7 0.0
21/11:30am 15.3 12.3 7.8 61 3.9 NNE 13 20 7 11 1031.2 1030.1 0.0
21/11:00am 15.0 11.1 7.3 60 3.9 E 17 24 9 13 1031.5 1030.4 0.0
21/10:30am 15.3 11.4 8.8 65 3.4 E 19 28 10 15 1031.6 1030.6 0.0
21/10:00am 14.7 10.8 8.6 67 3.2 E 19 26 10 14 1031.6 1030.6 0.0
21/09:30am 14.0 8.9 7.8 66 3.2 E 24 35 13 19 1031.4 1030.3 0.0
21/09:00am 13.7 8.8 8.3 70 2.8 ENE 24 33 13 18 1031.2 1030.1 0.0
21/08:30am 13.2 8.2 7.9 70 2.7 ENE 24 32 13 17 1030.8 1029.7 0.0
21/08:00am 12.5 7.9 8.2 75 2.2 ENE 22 28 12 15 1030.5 1029.4 0.0
21/07:30am 11.5 6.8 7.6 77 2.0 ENE 22 28 12 15 1029.9 1028.8 0.0
21/07:00am 10.8 7.0 7.5 80 1.6 ENE 17 24 9 13 1029.7 1028.6 0.0
21/06:30am 10.0 6.3 7.8 86 1.1 ENE 17 26 9 14 1029.4 1028.3 0.0
21/06:00am 9.9 6.0 7.2 83 1.3 E 17 24 9 13 1029.3 1028.2 0.0
21/05:30am 10.1 6.1 6.8 80 1.6 E 17 26 9 14 1029.1 1027.9 0.0
21/05:00am 10.3 5.8 7.0 80 1.6 E 20 32 11 17 1029.1 1027.9 0.0
21/04:30am 10.4 5.5 7.1 80 1.6 E 22 32 12 17 1029.0 1027.8 0.0
21/04:00am 10.5 5.2 7.0 79 1.7 E 24 35 13 19 1029.0 1027.8 0.0
21/03:30am 10.5 4.9 7.0 79 1.7 E 26 35 14 19 1029.1 1027.9 0.0
21/03:00am 10.6 5.4 7.1 79 1.7 E 24 33 13 18 1029.2 1028.0 0.0
21/02:30am 10.6 6.1 7.1 79 1.7 E 20 32 11 17 1029.3 1028.2 0.0
21/02:00am 10.6 6.2 7.3 80 1.6 E 20 33 11 18 1029.5 1028.4 0.0
21/01:30am 10.6 5.8 7.5 81 1.6 E 22 32 12 17 1029.6 1028.5 0.0
21/01:00am 10.8 5.7 7.5 80 1.6 E 24 32 13 17 1029.7 1028.6 0.0
21/12:30am 10.7 5.6 7.6 81 1.6 E 24 35 13 19 1029.9 1028.8 0.0
21/12:00am 10.7 5.6 7.6 81 1.5 E 24 37 13 20 1030.0 1028.9 0.0
 
Date/Time
EDT
Temp
°C
App
Temp
°C
Dew
Point
Rel
Hum
%
Delta-T
°C
Wind Press
QNH
hPa
Press
MSL
hPa
Rain
since 9 am
mm
Dir
 
Spd
km/h
Gust
km/h
Spd
kts
Gust
kts
20/11:30pm 10.7 5.3 7.8 82 1.5 E 26 35 14 19 1030.1 1029.0 0.0
20/11:00pm 10.8 5.0 7.9 82 1.5 E 28 43 15 23 1030.1 1029.0 0.0
20/10:30pm 10.9 5.8 7.8 81 1.6 E 24 37 13 20 1029.9 1028.8 0.0
20/10:00pm 11.1 5.3 8.0 81 1.6 E 28 41 15 22 1029.8 1028.7 0.0
20/09:30pm 11.3 5.6 8.2 81 1.6 E 28 41 15 22 1029.6 1028.5 0.0
20/09:00pm 11.8 6.2 8.6 81 1.6 E 28 41 15 22 1029.3 1028.2 0.0
20/08:30pm 12.1 7.2 8.6 79 1.8 E 24 35 13 19 1029.0 1027.8 0.0
20/08:00pm 12.5 8.5 9.1 80 1.8 E 20 32 11 17 1028.4 1027.3 0.0
20/07:30pm 12.8 8.5 9.3 79 1.8 E 22 32 12 17 1028.2 1027.1 0.0
20/07:00pm 13.4 8.6 8.9 74 2.3 ENE 24 33 13 18 1028.0 1026.8 0.0
20/06:30pm 14.2 9.3 8.6 69 2.9 ENE 24 32 13 17 1027.8 1026.6 0.0
20/06:00pm 15.9 11.2 9.3 65 3.5 E 24 35 13 19 1027.7 1026.5 0.0
20/05:30pm 16.5 11.2 9.7 64 3.7 E 28 35 15 19 1027.3 1026.2 0.0
20/05:00pm 17.7 12.5 10.3 62 4.1 E 28 37 15 20 1026.9 1025.8 0.0
20/04:30pm 19.0 14.3 10.8 59 4.6 E 26 35 14 19 1026.6 1025.4 0.0
20/04:00pm 19.6 14.4 10.3 55 5.2 ENE 28 35 15 19 1026.5 1025.3 0.0
20/03:30pm 21.5 17.6 12.1 55 5.5 ENE 24 33 13 18 1026.4 1025.2 0.0
20/03:00pm 22.8 20.1 13.6 56 5.5 ENE 20 28 11 15 1026.5 1025.3 0.0
20/02:30pm 23.5 20.8 12.8 51 6.4 ENE 19 24 10 13 1026.6 1025.4 0.0
20/02:00pm 23.1 20.1 11.8 49 6.6 E 19 28 10 15 1027.0 1025.9 0.0
20/01:30pm 23.2 19.9 10.9 46 7.1 ENE 19 28 10 15 1027.3 1026.2 0.0

Other Formats:

Comma delimited format used in spreadsheet applications
http://www.bom.gov.au/fwo/IDN60801/IDN60801.94729.axf

JavaScript Object Notation format (JSON) in row-major order
http://www.bom.gov.au/fwo/IDN60801/IDN60801.94729.json